Time;durP1;ratioP1;P1;durP2;ratioP2;P2;SDS_P1;SDS_P2;PMS_P1;PMS_P2;Temp;Humidity;BMP_temperature;BMP_pressure;BME280_temperature;BME280_humidity;BME280_pressure;Samples;Min_cycle;Max_cycle;Signal;HPM_P1;HPM_P2
2023/03/27 00:00:31;;;;;;;9.10;5.53;;;11.30;57.10;;;11.38;44.69;93923.16;5019285;28;20469;-58
2023/03/27 00:02:58;;;;;;;8.77;6.10;;;11.30;58.00;;;11.35;44.35;93939.28;5015091;28;20461;-61
2023/03/27 00:05:26;;;;;;;12.83;6.07;;;11.20;57.00;;;11.36;44.54;93936.50;5019846;28;20482;-63
2023/03/27 00:07:55;;;;;;;8.37;5.60;;;11.20;57.20;;;11.36;44.46;93943.56;5018142;28;20462;-59
2023/03/27 00:10:22;;;;;;;9.57;5.40;;;11.20;57.10;;;11.35;44.58;93934.84;5016392;28;20524;-58
2023/03/27 00:12:50;;;;;;;8.17;5.27;;;11.20;57.40;;;11.35;44.57;93952.47;5019901;28;20480;-58
2023/03/27 00:15:17;;;;;;;9.00;4.77;;;11.20;56.90;;;11.32;44.26;93932.53;5010009;28;20497;-63
2023/03/27 00:17:46;;;;;;;13.17;5.53;;;11.20;56.90;;;11.28;43.99;93947.84;5013837;28;20469;-57
2023/03/27 00:20:14;;;;;;;8.90;5.90;;;11.20;56.80;;;11.27;44.43;93937.50;5014621;28;20565;-58
2023/03/27 00:22:42;;;;;;;9.33;6.17;;;11.10;57.00;;;11.24;44.19;93945.72;5014056;28;20548;-62
2023/03/27 00:25:11;;;;;;;7.93;5.90;;;11.10;56.90;;;11.20;43.83;93941.78;5016424;28;20890;-58
2023/03/27 00:27:38;;;;;;;9.40;4.90;;;11.10;56.60;;;11.16;44.13;93932.59;5018557;28;20812;-62
2023/03/27 00:30:07;;;;;;;7.13;4.70;;;11.00;56.50;;;11.11;43.85;93933.09;5015976;28;20485;-59
2023/03/27 00:32:35;;;;;;;7.23;4.93;;;11.00;56.40;;;11.09;43.97;93941.16;5011929;28;20466;-59
2023/03/27 00:35:03;;;;;;;7.80;5.27;;;11.00;56.40;;;11.07;44.14;93927.31;5017752;28;21412;-62
2023/03/27 00:37:31;;;;;;;6.37;4.60;;;10.90;56.50;;;11.04;44.17;93932.09;5010872;28;20460;-63
2023/03/27 00:39:59;;;;;;;7.00;4.00;;;10.90;56.50;;;10.99;44.30;93914.16;5011664;28;20990;-63
2023/03/27 00:42:27;;;;;;;8.33;5.30;;;10.90;56.70;;;10.91;44.53;93903.66;5016476;28;20961;-57
2023/03/27 00:44:55;;;;;;;7.23;4.97;;;10.80;56.80;;;10.86;44.41;93913.84;5016650;28;20461;-63
2023/03/27 00:47:29;;;;;;;6.00;4.90;;;10.80;56.90;;;10.83;44.55;93908.91;5010317;28;20458;-58
2023/03/27 00:49:57;;;;;;;7.73;5.53;;;10.70;57.10;;;10.80;44.84;93903.97;5020171;28;20436;-61
2023/03/27 00:52:28;;;;;;;8.13;4.97;;;10.70;57.30;;;10.76;44.88;93896.41;5021435;28;20445;-62
2023/03/27 00:54:55;;;;;;;11.23;5.20;;;10.70;57.50;;;10.74;44.63;93895.78;5019727;28;20563;-63
2023/03/27 00:57:24;;;;;;;5.03;4.50;;;10.70;57.50;;;10.72;44.91;93894.28;5020468;28;20449;-62
2023/03/27 00:59:53;;;;;;;6.10;4.60;;;10.60;57.50;;;10.72;44.79;93904.81;5016628;28;20464;-62
2023/03/27 01:02:20;;;;;;;8.30;4.80;;;10.60;57.50;;;10.71;44.81;93893.47;5022628;28;20460;-58
2023/03/27 01:04:48;;;;;;;4.63;4.23;;;10.60;57.50;;;10.69;44.70;93884.09;5014117;28;20450;-63
2023/03/27 01:07:15;;;;;;;6.97;4.73;;;10.60;57.50;;;10.67;44.90;93891.34;5017015;28;20460;-58
2023/03/27 01:09:44;;;;;;;5.33;4.53;;;10.60;57.50;;;10.62;44.88;93869.97;5019878;28;21051;-57
2023/03/27 01:12:20;;;;;;;8.03;5.00;;;10.50;57.40;;;10.58;44.56;93875.56;5020835;28;20452;-60
2023/03/27 01:14:58;;;;;;;10.53;4.90;;;10.50;57.40;;;10.56;45.13;93874.06;5008614;28;20483;-57
2023/03/27 01:17:37;;;;;;;7.77;5.20;;;10.50;57.40;;;10.54;45.07;93862.91;5010177;28;20454;-57
2023/03/27 01:20:41;;;;;;;10.87;5.93;;;10.50;57.70;;;10.51;44.89;93864.06;5012455;28;20519;-57
2023/03/27 01:23:51;;;;;;;10.70;5.00;;;10.40;57.30;;;10.49;45.39;93854.72;5018918;28;20514;-63
2023/03/27 01:27:06;;;;;;;11.90;4.67;;;10.40;57.70;;;10.49;45.40;93855.53;4986342;28;21041;-59
2023/03/27 01:29:57;;;;;;;7.33;5.60;;;10.40;58.10;;;10.50;45.19;93861.59;5011329;28;20487;-59
2023/03/27 01:33:12;;;;;;;7.73;5.80;;;10.40;57.80;;;10.51;45.27;93864.06;5003914;28;21175;-59
2023/03/27 01:36:07;;;;;;;12.50;6.20;;;10.40;57.80;;;10.51;44.64;93858.78;5008444;28;20505;-62
2023/03/27 01:39:25;;;;;;;11.90;7.10;;;10.40;57.70;;;10.51;45.15;93852.72;5017080;28;21010;-58
2023/03/27 01:41:55;;;;;;;10.97;5.30;;;10.40;58.00;;;10.49;45.00;93844.19;5009790;28;20869;-63
2023/03/27 01:44:30;;;;;;;8.43;5.43;;;10.40;57.60;;;10.50;44.98;93837.94;5012111;28;20457;-56
2023/03/27 01:47:01;;;;;;;10.57;6.77;;;10.40;57.50;;;10.51;45.09;93834.31;5012850;28;20496;-63
2023/03/27 01:49:31;;;;;;;9.53;6.03;;;10.40;57.80;;;10.50;45.04;93830.88;5012857;28;20437;-57
2023/03/27 01:52:00;;;;;;;8.87;6.00;;;10.40;57.70;;;10.49;44.88;93823.97;5020095;28;20472;-58
2023/03/27 01:54:31;;;;;;;9.37;5.60;;;10.40;57.80;;;10.50;44.81;93825.63;5017557;28;20562;-58
2023/03/27 01:57:01;;;;;;;9.57;6.67;;;10.40;57.80;;;10.50;45.00;93828.25;5021571;28;21030;-59
2023/03/27 01:59:28;;;;;;;11.20;6.70;;;10.40;57.80;;;10.51;45.11;93834.31;5018805;28;21031;-62
2023/03/27 02:01:59;;;;;;;7.73;6.13;;;10.40;58.00;;;10.50;45.25;93819.53;5013555;28;20474;-59
2023/03/27 02:04:28;;;;;;;7.73;5.60;;;10.40;58.10;;;10.50;45.12;93817.75;5017589;28;20453;-62
2023/03/27 02:06:57;;;;;;;9.50;6.23;;;10.40;58.10;;;10.47;44.92;93818.06;5011994;28;20978;-62
2023/03/27 02:09:29;;;;;;;10.67;5.97;;;10.40;57.60;;;10.46;44.84;93826.13;5014841;28;21016;-58
2023/03/27 02:11:59;;;;;;;11.60;6.30;;;10.30;57.80;;;10.45;44.99;93819.22;5008783;28;20487;-62
2023/03/27 02:14:28;;;;;;;8.43;5.13;;;10.30;57.70;;;10.43;44.87;93816.75;5017945;28;20457;-57
2023/03/27 02:16:57;;;;;;;13.70;5.87;;;10.40;57.80;;;10.42;44.80;93814.28;5013455;28;20485;-62
2023/03/27 02:19:32;;;;;;;14.00;5.40;;;10.30;57.60;;;10.42;44.94;93806.41;5017084;28;20480;-58
2023/03/27 02:21:59;;;;;;;9.67;4.90;;;10.30;57.80;;;10.43;44.99;93803.59;5014610;28;20484;-62
2023/03/27 02:24:28;;;;;;;8.83;5.47;;;10.30;58.00;;;10.46;45.12;93794.56;5016476;28;20864;-60
2023/03/27 02:27:00;;;;;;;6.40;4.80;;;10.30;58.10;;;10.46;44.99;93782.25;5020312;28;20465;-59
2023/03/27 02:29:39;;;;;;;8.07;5.80;;;10.30;58.10;;;10.46;44.98;93771.72;5015129;28;20493;-64
2023/03/27 02:32:14;;;;;;;8.47;5.80;;;10.40;58.00;;;10.45;45.05;93782.41;5009322;28;20507;-63
2023/03/27 02:35:02;;;;;;;10.80;4.93;;;10.40;58.00;;;10.43;44.93;93766.00;5013484;28;20508;-58
2023/03/27 02:37:36;;;;;;;7.00;5.27;;;10.30;57.80;;;10.42;45.03;93748.56;5014201;28;20462;-58
2023/03/27 02:40:12;;;;;;;7.17;5.17;;;10.30;58.10;;;10.40;44.76;93746.91;5012616;28;20488;-62
2023/03/27 02:42:44;;;;;;;13.53;6.00;;;10.30;57.80;;;10.36;45.34;93735.13;5011427;28;20510;-58
2023/03/27 02:45:15;;;;;;;11.27;5.63;;;10.30;58.00;;;10.31;44.92;93724.22;5010835;28;20485;-60
2023/03/27 02:47:43;;;;;;;12.33;6.70;;;10.20;58.00;;;10.23;45.03;93746.06;5014055;28;20609;-58
2023/03/27 02:50:15;;;;;;;10.77;6.43;;;10.20;57.90;;;10.15;45.04;93743.47;5014233;28;20559;-58
2023/03/27 02:52:43;;;;;;;12.60;6.33;;;10.10;57.90;;;10.08;45.58;93704.88;5012704;28;20488;-59
2023/03/27 02:55:16;;;;;;;15.00;6.57;;;10.00;58.40;;;10.03;45.49;93714.06;5011864;28;20508;-63
2023/03/27 02:57:45;;;;;;;12.43;6.20;;;10.00;58.70;;;10.00;45.69;93708.34;5016202;28;20457;-62
2023/03/27 03:00:17;;;;;;;7.23;5.73;;;9.90;59.50;;;10.00;45.30;93718.84;5017533;28;20476;-63
2023/03/27 03:02:44;;;;;;;9.50;5.53;;;9.90;60.20;;;9.97;45.56;93714.72;5011021;28;20485;-59
2023/03/27 03:05:16;;;;;;;12.60;5.73;;;9.90;59.50;;;9.96;45.57;93714.88;5007095;28;20485;-63
2023/03/27 03:07:45;;;;;;;9.00;5.83;;;9.90;59.70;;;9.96;46.05;93713.09;5004273;28;21113;-58
2023/03/27 03:10:14;;;;;;;15.90;5.43;;;9.90;59.90;;;9.98;45.92;93707.69;5006989;28;20496;-62
2023/03/27 03:12:41;;;;;;;8.57;5.23;;;9.90;59.90;;;9.99;45.85;93689.13;5019237;28;20484;-64
2023/03/27 03:15:10;;;;;;;8.67;5.43;;;9.90;59.90;;;10.03;45.63;93684.34;5014199;28;21017;-58
2023/03/27 03:17:37;;;;;;;11.87;6.70;;;9.90;59.80;;;10.05;45.69;93682.38;5015304;28;20575;-58
2023/03/27 03:20:06;;;;;;;9.93;6.00;;;9.90;60.00;;;10.07;45.69;93684.84;5023700;28;20549;-63
2023/03/27 03:22:33;;;;;;;14.30;5.97;;;9.90;59.90;;;10.07;45.67;93685.69;5017389;28;20568;-58
2023/03/27 03:25:01;;;;;;;16.83;7.00;;;10.00;58.90;;;10.08;45.69;93674.16;5015980;28;20515;-62
2023/03/27 03:27:30;;;;;;;15.70;7.60;;;10.00;58.80;;;10.11;45.79;93667.78;5019820;28;20452;-58
2023/03/27 03:29:57;;;;;;;13.70;7.37;;;10.00;59.00;;;10.13;45.91;93669.25;5015776;28;20543;-57
2023/03/27 03:32:25;;;;;;;8.10;5.10;;;10.00;59.00;;;10.16;46.14;93670.72;5010623;28;20549;-63
2023/03/27 03:34:52;;;;;;;13.43;6.40;;;10.00;59.30;;;10.19;46.01;93655.44;5014738;28;20977;-63
2023/03/27 03:37:20;;;;;;;14.43;7.93;;;10.10;59.50;;;10.21;45.83;93669.22;5009103;28;20461;-59
2023/03/27 03:39:47;;;;;;;12.37;6.67;;;10.10;59.30;;;10.24;46.30;93660.19;5020220;28;20460;-62
2023/03/27 03:42:14;;;;;;;12.20;6.63;;;10.20;59.70;;;10.26;45.82;93681.88;5012023;28;20954;-62
2023/03/27 03:44:43;;;;;;;13.50;7.17;;;10.20;59.40;;;10.28;45.71;93658.84;5012521;28;21057;-62
2023/03/27 03:47:10;;;;;;;13.60;9.40;;;10.20;58.90;;;10.29;45.76;93671.03;5017469;28;20461;-63
2023/03/27 03:49:38;;;;;;;13.70;7.40;;;10.20;59.10;;;10.32;45.46;93673.31;5019566;28;20475;-60
2023/03/27 03:52:06;;;;;;;31.10;9.50;;;10.20;58.90;;;10.36;45.62;93668.56;5019727;28;20473;-65
2023/03/27 03:54:33;;;;;;;34.63;21.33;;;10.20;59.10;;;10.38;45.77;93672.66;5019104;28;20491;-58
2023/03/27 03:57:01;;;;;;;21.03;13.40;;;10.30;59.40;;;10.42;46.10;93669.72;5018389;28;20504;-63
2023/03/27 03:59:29;;;;;;;41.70;24.80;;;10.30;59.70;;;10.42;45.86;93670.53;5018106;28;20448;-63
2023/03/27 04:01:57;;;;;;;34.47;18.73;;;10.30;59.40;;;10.45;45.94;93674.63;5027341;28;20472;-58
2023/03/27 04:04:25;;;;;;;21.57;8.20;;;10.30;59.70;;;10.45;45.82;93664.13;5020668;28;20461;-58
2023/03/27 04:06:56;;;;;;;40.70;8.53;;;10.40;59.50;;;10.48;45.93;93663.78;5012505;28;20555;-64
2023/03/27 04:09:24;;;;;;;17.83;7.97;;;10.40;59.60;;;10.50;46.00;93677.56;5012899;28;21042;-57
2023/03/27 04:11:51;;;;;;;17.83;7.50;;;10.40;59.80;;;10.51;46.24;93666.06;5014853;28;20474;-57
2023/03/27 04:14:18;;;;;;;12.47;6.47;;;10.40;60.00;;;10.48;46.11;93669.03;5016134;28;20464;-59
2023/03/27 04:16:46;;;;;;;14.10;7.90;;;10.40;59.80;;;10.50;45.98;93656.53;5015209;28;20550;-58
2023/03/27 04:19:17;;;;;;;18.70;8.80;;;10.40;59.70;;;10.50;46.40;93651.28;5021629;28;20452;-63
2023/03/27 04:21:46;;;;;;;32.83;7.70;;;10.40;59.60;;;10.50;45.93;93652.13;5017792;28;21228;-63
2023/03/27 04:24:13;;;;;;;19.30;9.10;;;10.40;59.90;;;10.51;45.82;93656.34;5020270;28;20450;-63
2023/03/27 04:26:42;;;;;;;19.30;9.60;;;10.40;59.90;;;10.47;46.11;93652.44;5020001;28;20469;-64
2023/03/27 04:29:09;;;;;;;22.50;8.67;;;10.40;59.90;;;10.50;45.89;93673.16;5018666;28;20458;-63
2023/03/27 04:31:37;;;;;;;22.13;9.77;;;10.40;59.50;;;10.52;45.63;93665.09;5011945;28;20515;-63
2023/03/27 04:34:07;;;;;;;19.03;8.20;;;10.40;59.20;;;10.55;45.90;93648.94;5014181;28;20462;-64
2023/03/27 04:36:36;;;;;;;13.60;8.60;;;10.40;59.60;;;10.59;45.71;93639.75;5019942;28;20989;-63
2023/03/27 04:39:03;;;;;;;21.40;10.97;;;10.50;59.40;;;10.61;45.75;93632.50;5011761;28;20576;-59
2023/03/27 04:41:31;;;;;;;16.73;9.63;;;10.50;59.60;;;10.64;45.72;93637.41;5010861;28;20489;-63
2023/03/27 04:43:59;;;;;;;31.30;9.87;;;10.50;59.60;;;10.68;45.59;93633.47;5014950;28;20445;-58
2023/03/27 04:46:26;;;;;;;26.63;8.60;;;10.50;59.40;;;10.73;45.78;93638.22;5015732;28;20473;-64
2023/03/27 04:48:55;;;;;;;13.43;8.07;;;10.60;59.40;;;10.75;45.18;93644.94;5014169;28;20954;-60
2023/03/27 04:51:25;;;;;;;23.10;10.37;;;10.60;59.10;;;10.78;45.25;93649.03;5017709;28;21010;-59
2023/03/27 04:53:55;;;;;;;34.43;10.53;;;10.70;59.00;;;10.81;45.40;93645.25;5020556;28;20448;-58
2023/03/27 04:56:22;;;;;;;21.47;9.00;;;10.70;59.10;;;10.85;45.25;93638.66;5015382;28;20496;-58
2023/03/27 04:58:50;;;;;;;27.07;10.63;;;10.70;59.30;;;10.92;45.66;93631.69;5010192;28;20462;-59
2023/03/27 05:01:17;;;;;;;21.30;9.40;;;10.80;59.30;;;10.96;45.11;93614.59;5014651;28;20540;-64
2023/03/27 05:03:47;;;;;;;32.53;11.47;;;10.80;58.90;;;11.02;45.35;93624.41;5012400;28;20825;-59
2023/03/27 05:06:15;;;;;;;47.13;10.07;;;10.90;59.40;;;11.06;45.56;93612.56;5017111;28;21070;-58
2023/03/27 05:08:42;;;;;;;37.80;9.50;;;10.90;59.40;;;11.15;45.38;93617.75;5013901;28;20983;-58
2023/03/27 05:11:11;;;;;;;21.07;8.97;;;11.00;59.50;;;11.24;45.64;93625.41;5023289;28;20477;-64
2023/03/27 05:13:38;;;;;;;27.40;9.30;;;11.10;59.80;;;11.29;45.43;93612.56;5016790;28;20472;-57
2023/03/27 05:16:08;;;;;;;22.73;9.00;;;11.10;59.60;;;11.34;45.13;93601.53;5019308;28;20583;-65
2023/03/27 05:18:37;;;;;;;20.63;8.17;;;11.20;59.20;;;11.39;45.13;93579.94;5020217;28;20537;-59
2023/03/27 05:21:05;;;;;;;22.73;7.23;;;11.20;59.60;;;11.44;44.43;93572.31;5018744;28;20510;-59
2023/03/27 05:23:32;;;;;;;28.40;7.93;;;11.30;58.50;;;11.49;44.30;93556.78;5019519;28;20769;-57
2023/03/27 05:26:00;;;;;;;17.13;6.27;;;11.30;58.00;;;11.53;44.22;93550.19;5022255;28;20587;-59
2023/03/27 05:28:29;;;;;;;15.07;6.70;;;11.40;58.10;;;11.52;44.03;93545.91;5017156;28;20464;-59
2023/03/27 05:30:56;;;;;;;16.37;7.20;;;11.40;57.90;;;11.50;44.03;93553.19;5010222;28;20552;-64
2023/03/27 05:33:24;;;;;;;19.47;7.93;;;11.40;57.90;;;11.50;43.83;93552.38;5010113;28;20546;-59
2023/03/27 05:35:52;;;;;;;24.10;7.70;;;11.30;57.30;;;11.49;43.45;93514.66;5021515;28;20503;-60
2023/03/27 05:38:21;;;;;;;17.60;7.97;;;11.40;57.00;;;11.50;43.72;93510.25;5016221;28;20460;-58
2023/03/27 05:40:51;;;;;;;16.90;8.17;;;11.40;57.20;;;11.51;43.53;93504.78;5022076;28;20480;-59
2023/03/27 05:43:18;;;;;;;21.03;7.23;;;11.40;57.10;;;11.55;43.76;93484.97;5020137;28;20523;-59
2023/03/27 05:45:47;;;;;;;20.23;9.80;;;11.40;57.50;;;11.59;43.16;93478.38;5019127;28;20469;-64
2023/03/27 05:48:14;;;;;;;32.40;14.10;;;11.40;56.90;;;11.62;43.21;93490.38;5012838;28;20537;-64
2023/03/27 05:50:41;;;;;;;29.57;15.33;;;11.40;56.70;;;11.63;42.91;93479.66;5019684;28;20472;-63
2023/03/27 05:53:10;;;;;;;40.17;15.57;;;11.50;56.40;;;11.65;42.71;93464.47;5019937;28;20456;-64
2023/03/27 05:55:38;;;;;;;35.40;14.50;;;11.50;56.30;;;11.70;42.94;93453.41;5016841;28;20472;-64
2023/03/27 05:58:08;;;;;;;42.60;13.60;;;11.50;56.40;;;11.77;43.20;93422.72;5008959;28;20458;-63
2023/03/27 06:00:37;;;;;;;30.63;14.43;;;11.60;56.80;;;11.84;42.99;93420.97;5016011;28;20528;-64
2023/03/27 06:03:06;;;;;;;29.93;13.57;;;11.70;56.60;;;11.88;42.12;93391.63;5012361;28;20469;-65
2023/03/27 06:05:33;;;;;;;34.50;12.43;;;11.70;56.10;;;11.87;41.92;93396.06;5016623;28;20885;-59
2023/03/27 06:08:00;;;;;;;21.00;9.20;;;11.70;55.70;;;11.86;42.22;93398.88;5012431;28;20557;-64
2023/03/27 06:10:29;;;;;;;23.67;9.87;;;11.70;55.50;;;11.87;42.55;93413.69;5012242;28;20504;-59
2023/03/27 06:13:00;;;;;;;25.57;7.43;;;11.70;56.00;;;11.94;42.87;93419.88;5012041;28;20480;-64
2023/03/27 06:15:27;;;;;;;18.00;6.10;;;11.70;56.20;;;12.03;42.71;93429.31;5011789;28;20476;-64
2023/03/27 06:17:55;;;;;;;18.73;7.00;;;11.80;56.50;;;12.14;43.08;93428.84;5013859;28;20466;-59
2023/03/27 06:20:24;;;;;;;23.27;6.67;;;11.90;56.80;;;12.30;42.90;93421.72;5013718;28;20532;-63
2023/03/27 06:22:54;;;;;;;11.30;5.70;;;12.10;56.90;;;12.41;42.58;93426.53;5013170;28;20559;-65
2023/03/27 06:25:21;;;;;;;13.10;5.87;;;12.20;56.50;;;12.51;42.55;93400.66;5013188;28;21062;-59
2023/03/27 06:27:50;;;;;;;8.33;5.30;;;12.30;56.60;;;12.60;42.54;93405.81;5011566;28;21003;-59
2023/03/27 06:30:19;;;;;;;11.27;4.70;;;12.40;56.50;;;12.67;42.46;93418.06;5012081;28;20466;-64
2023/03/27 06:32:47;;;;;;;14.63;4.90;;;12.50;56.50;;;12.75;42.28;93411.84;5009851;28;20557;-58
2023/03/27 06:35:15;;;;;;;10.73;4.40;;;12.50;56.40;;;12.80;42.95;93404.16;5007633;28;20514;-58
2023/03/27 06:37:45;;;;;;;9.53;4.03;;;12.60;57.30;;;12.88;43.24;93401.38;5012093;28;21122;-64
2023/03/27 06:40:19;;;;;;;6.53;3.73;;;12.70;57.70;;;12.97;42.93;93407.34;5015699;28;21190;-59
2023/03/27 06:42:50;;;;;;;3.90;3.07;;;12.80;57.20;;;13.07;42.82;93407.03;5012034;28;20445;-59
2023/03/27 06:45:18;;;;;;;12.43;3.67;;;12.80;57.00;;;13.18;42.83;93426.81;5013364;28;20481;-63
2023/03/27 06:47:50;;;;;;;6.30;4.00;;;12.90;56.80;;;13.33;42.12;93418.78;5015788;28;20461;-59
2023/03/27 06:50:17;;;;;;;5.67;3.83;;;13.10;56.70;;;13.49;42.45;93436.19;5016049;28;21215;-59
2023/03/27 06:52:47;;;;;;;25.57;3.97;;;13.20;56.60;;;13.64;41.94;93418.41;5012687;28;20453;-58
2023/03/27 06:55:14;;;;;;;3.87;3.10;;;13.40;56.20;;;13.71;41.63;93413.16;5018951;28;20472;-57
2023/03/27 06:57:45;;;;;;;5.13;3.10;;;13.50;55.50;;;13.81;41.38;93440.84;5013782;28;21336;-58
2023/03/27 07:00:17;;;;;;;9.10;2.40;;;13.60;55.40;;;13.93;41.09;93435.84;5016600;28;20476;-64
2023/03/27 07:02:45;;;;;;;15.57;4.03;;;13.70;55.30;;;14.09;41.10;93447.09;5013483;28;20442;-59
2023/03/27 07:05:13;;;;;;;13.40;3.20;;;13.80;55.30;;;14.28;41.08;93441.09;5016746;28;20508;-58
2023/03/27 07:07:40;;;;;;;6.57;2.93;;;14.00;55.00;;;14.51;40.27;93413.47;5016005;28;20453;-58
2023/03/27 07:10:10;;;;;;;5.27;3.40;;;14.20;55.30;;;14.67;40.67;93407.00;5017505;28;20496;-65
2023/03/27 07:12:37;;;;;;;10.30;3.97;;;14.40;54.70;;;14.87;40.87;93417.63;5020459;28;20456;-59
2023/03/27 07:15:06;;;;;;;4.13;3.13;;;14.60;55.20;;;15.09;40.29;93420.09;5017354;28;20465;-64
2023/03/27 07:17:34;;;;;;;5.20;3.00;;;14.80;54.60;;;15.27;40.09;93412.34;5021264;28;20547;-64
2023/03/27 07:20:01;;;;;;;6.50;3.17;;;15.00;54.40;;;15.45;40.14;93408.28;5020361;28;20468;-59
2023/03/27 07:22:29;;;;;;;6.00;2.43;;;15.20;54.60;;;15.65;39.98;93409.06;5018048;28;20452;-63
2023/03/27 07:24:56;;;;;;;14.43;3.10;;;15.30;54.50;;;15.86;39.21;93404.53;5011430;28;20457;-65
2023/03/27 07:27:25;;;;;;;6.40;2.80;;;15.50;54.10;;;15.99;39.42;93412.47;5018798;28;20457;-57
2023/03/27 07:29:53;;;;;;;6.63;3.50;;;15.70;53.90;;;16.06;39.01;93413.25;5015141;28;20453;-64
2023/03/27 07:32:20;;;;;;;9.47;3.43;;;15.80;53.40;;;16.12;39.05;93409.75;5016279;28;20580;-59
2023/03/27 07:34:48;;;;;;;6.43;2.90;;;15.80;52.90;;;16.15;39.23;93407.72;5019472;28;20444;-64
2023/03/27 07:37:15;;;;;;;8.60;2.97;;;15.90;53.10;;;16.17;38.93;93405.66;5015740;28;20580;-58
2023/03/27 07:39:43;;;;;;;7.23;2.50;;;15.90;53.00;;;16.15;38.91;93415.69;5017059;28;20461;-60
2023/03/27 07:42:10;;;;;;;7.20;2.90;;;15.90;52.60;;;16.15;39.05;93416.50;5021969;28;20457;-65
2023/03/27 07:44:39;;;;;;;5.67;3.10;;;15.90;53.00;;;16.15;39.29;93411.19;5020895;28;20559;-60
2023/03/27 07:47:06;;;;;;;5.20;3.80;;;15.90;53.10;;;16.15;38.86;93400.56;5017451;28;20480;-64
2023/03/27 07:49:34;;;;;;;9.37;2.87;;;15.90;53.00;;;16.17;39.04;93398.50;5023192;28;20453;-64
2023/03/27 07:52:01;;;;;;;6.40;2.80;;;15.90;53.00;;;16.25;38.83;93393.00;5017425;28;20472;-65
2023/03/27 07:54:30;;;;;;;7.40;2.40;;;16.00;53.30;;;16.34;38.84;93384.78;5018738;28;20830;-58
2023/03/27 07:56:57;;;;;;;11.20;3.10;;;16.10;53.00;;;16.38;38.94;93396.59;5022732;28;20507;-58
2023/03/27 07:59:25;;;;;;;9.40;2.73;;;16.20;53.20;;;16.45;39.26;93378.78;5023137;28;20453;-60
2023/03/27 08:01:54;;;;;;;6.37;2.90;;;16.20;53.30;;;16.56;39.04;93387.91;5016477;28;20492;-59
2023/03/27 08:04:22;;;;;;;3.60;3.00;;;16.30;53.30;;;16.64;39.15;93387.69;5020090;28;20467;-59
2023/03/27 08:06:53;;;;;;;9.37;2.80;;;16.40;53.20;;;16.67;38.75;93373.97;5020349;28;21040;-65
2023/03/27 08:09:21;;;;;;;4.40;2.80;;;16.40;52.70;;;16.74;38.75;93364.13;5016992;28;20462;-64
2023/03/27 08:11:49;;;;;;;4.60;3.17;;;16.50;53.00;;;16.77;38.50;93362.88;5021476;28;20478;-63
2023/03/27 08:14:17;;;;;;;4.30;2.67;;;16.50;53.10;;;16.76;38.66;93370.03;5019928;28;20958;-58
2023/03/27 08:16:45;;;;;;;7.23;3.43;;;16.50;52.50;;;16.72;38.71;93344.94;5023321;28;20519;-59
2023/03/27 08:19:14;;;;;;;11.23;3.17;;;16.50;52.50;;;16.64;38.85;93353.19;5015255;28;20488;-65
2023/03/27 08:21:42;;;;;;;30.47;4.40;;;16.40;52.60;;;16.56;39.12;93340.13;5014259;28;20478;-62
2023/03/27 08:24:10;;;;;;;3.77;2.90;;;16.30;52.80;;;16.52;38.91;93309.75;5013525;28;20508;-59
2023/03/27 08:26:37;;;;;;;6.17;3.37;;;16.30;53.30;;;16.45;38.90;93329.19;5016314;28;20642;-57
2023/03/27 08:29:04;;;;;;;18.87;3.90;;;16.20;53.30;;;16.47;39.15;93321.81;5013595;28;20467;-59
2023/03/27 08:31:33;;;;;;;6.63;4.50;;;16.20;53.50;;;16.51;39.34;93330.16;5016192;28;21225;-64
2023/03/27 08:34:00;;;;;;;12.23;3.80;;;16.30;53.60;;;16.49;39.38;93325.06;5018912;28;20535;-65
2023/03/27 08:36:30;;;;;;;16.20;3.80;;;16.30;53.50;;;16.45;39.37;93344.28;5021709;28;20481;-58
2023/03/27 08:39:01;;;;;;;4.10;3.70;;;16.20;53.30;;;16.38;39.49;93333.72;5020169;28;20449;-59
2023/03/27 08:44:05;;;;;;;6.00;3.80;;;16.20;53.70;;;16.56;39.52;93340.97;5206171;23;20936;-66
2023/03/27 08:46:35;;;;;;;3.43;3.23;;;16.30;53.90;;;16.76;39.31;93332.03;5016972;28;20471;-59
2023/03/27 08:49:06;;;;;;;3.73;3.37;;;16.40;53.70;;;16.87;39.18;93363.25;5016693;28;20451;-65
2023/03/27 08:51:39;;;;;;;5.77;3.30;;;16.60;53.60;;;16.99;39.04;93350.06;5017307;28;20477;-59
2023/03/27 08:54:08;;;;;;;3.40;3.10;;;16.70;53.70;;;17.14;38.65;93353.22;5018520;28;20989;-64
2023/03/27 08:56:36;;;;;;;7.97;4.47;;;16.80;53.30;;;17.27;38.49;93322.25;5015372;28;21372;-66
2023/03/27 08:59:04;;;;;;;3.13;2.80;;;16.90;53.10;;;17.37;38.34;93310.06;5012450;28;20461;-64
2023/03/27 09:01:36;;;;;;;3.87;2.83;;;17.00;52.60;;;17.50;38.03;93303.81;5010185;28;20564;-59
2023/03/27 09:04:07;;;;;;;13.90;3.90;;;17.20;52.30;;;17.71;37.26;93299.09;5015568;28;20507;-64
2023/03/27 09:06:40;;;;;;;3.43;2.63;;;17.30;52.00;;;17.81;37.83;93271.97;5013824;28;20480;-65
2023/03/27 09:09:11;;;;;;;11.47;2.47;;;17.50;52.40;;;17.98;36.84;93266.88;5013939;28;20503;-59
2023/03/27 09:11:51;;;;;;;10.37;2.80;;;17.60;51.20;;;18.04;35.98;93281.94;5011894;28;20478;-63
2023/03/27 09:14:29;;;;;;;11.10;2.67;;;17.70;50.10;;;18.12;35.94;93296.78;5015829;28;20829;-59
2023/03/27 09:16:57;;;;;;;4.63;1.97;;;17.80;49.50;;;18.15;35.81;93291.00;5011213;28;20497;-59
2023/03/27 09:19:31;;;;;;;10.50;2.37;;;17.80;49.40;;;18.17;35.07;93292.41;5018049;28;20446;-65
2023/03/27 09:22:04;;;;;;;4.30;2.10;;;17.90;49.00;;;18.17;35.20;93287.09;5015600;28;21012;-64
2023/03/27 09:24:35;;;;;;;25.77;2.50;;;17.90;48.70;;;18.16;35.76;93295.31;5015900;28;20910;-64
2023/03/27 09:27:13;;;;;;;16.50;2.47;;;17.90;49.40;;;18.13;35.11;93295.75;5011280;28;20850;-59
2023/03/27 09:29:41;;;;;;;5.50;2.27;;;17.80;49.00;;;18.05;35.69;93302.19;5009488;28;20525;-59
2023/03/27 09:32:12;;;;;;;19.43;2.13;;;17.80;49.10;;;17.92;36.02;93298.66;5015657;28;20540;-58
2023/03/27 09:34:39;;;;;;;9.20;1.90;;;17.70;49.00;;;17.80;36.14;93313.72;5012562;28;20454;-65
2023/03/27 09:37:12;;;;;;;12.73;2.20;;;17.60;49.40;;;17.65;36.54;93307.97;5013398;28;20559;-64
2023/03/27 09:39:41;;;;;;;2.20;1.83;;;17.50;50.20;;;17.47;36.83;93314.88;5011042;28;20445;-65
2023/03/27 09:42:15;;;;;;;1.80;1.70;;;17.30;50.70;;;17.33;37.46;93308.09;5015139;28;20456;-59
2023/03/27 09:44:44;;;;;;;17.03;2.20;;;17.10;51.20;;;17.16;37.84;93298.00;5014125;28;20531;-67
2023/03/27 09:47:14;;;;;;;3.10;1.87;;;16.90;51.60;;;17.00;38.03;93302.03;5018234;28;20488;-59
2023/03/27 09:49:44;;;;;;;7.13;1.77;;;16.80;51.80;;;16.85;38.05;93291.75;5010999;28;20454;-59
2023/03/27 09:52:33;;;;;;;6.57;2.20;;;16.60;51.80;;;16.76;38.83;93277.13;5011067;28;20531;-64
2023/03/27 09:55:01;;;;;;;6.93;1.80;;;16.60;52.50;;;16.71;38.62;93284.91;5011633;28;20461;-64
2023/03/27 09:57:32;;;;;;;8.50;2.30;;;16.50;52.50;;;16.62;38.87;93287.03;5012762;28;20884;-64
2023/03/27 10:00:01;;;;;;;8.07;2.00;;;16.40;53.00;;;16.57;39.75;93283.38;5014612;28;20438;-57
2023/03/27 10:02:30;;;;;;;7.60;2.27;;;16.30;53.60;;;16.55;39.76;93288.09;5012654;28;20516;-60
2023/03/27 10:04:59;;;;;;;12.60;3.10;;;16.30;53.80;;;16.51;39.80;93297.50;5015055;28;20605;-58
2023/03/27 10:07:28;;;;;;;7.67;2.40;;;16.20;53.90;;;16.46;39.87;93293.66;5015375;28;20466;-65
2023/03/27 10:10:07;;;;;;;3.00;2.40;;;16.20;54.10;;;16.42;40.29;93295.13;5013853;28;20471;-64
2023/03/27 10:12:35;;;;;;;6.80;1.97;;;16.20;54.10;;;16.40;40.26;93310.44;5012901;28;20974;-65
2023/03/27 10:15:03;;;;;;;2.13;1.87;;;16.10;54.80;;;16.36;40.53;93309.25;5013846;28;21051;-65
2023/03/27 10:17:36;;;;;;;3.37;2.07;;;16.10;54.80;;;16.29;40.67;93313.78;5015356;28;20811;-58
2023/03/27 10:20:07;;;;;;;3.43;1.97;;;16.10;54.90;;;16.20;40.97;93320.34;5010447;28;20560;-60
2023/03/27 10:22:38;;;;;;;4.30;2.03;;;16.00;55.30;;;16.15;41.87;93312.22;5011921;28;20897;-60
2023/03/27 10:25:15;;;;;;;3.03;2.27;;;15.90;56.50;;;16.08;42.56;93301.63;5014177;28;20472;-65
2023/03/27 10:27:42;;;;;;;4.70;3.00;;;15.80;57.10;;;16.04;42.21;93295.16;5015383;28;20479;-59
2023/03/27 10:30:29;;;;;;;2.20;2.00;;;15.80;57.30;;;15.99;42.71;93305.56;5012326;28;21014;-58